< Typhoon 196005 1960 Season Typhoon 196007 >
Typhoon 196006 (POLLY)
General InformationTrack Information on Google Maps || Disaster Info.ResourceGoogle EarthGE AnimationAtom FeedGeoJSON
Detalied Best Track (Time Zone = UTC)
Year Month Day Hour Lat. Long. Pressure (hPa) Wind (kt) Class Image Chart
1960 7 17 00 16.5 128.8 1008 0 2 -- Chart
1960 7 17 06 17.7 128.0 1000 0 2 -- Chart
1960 7 17 12 18.0 127.2 1000 0 2 -- Chart
1960 7 17 18 18.2 127.0 998 0 2 -- Chart
1960 7 18 00 18.5 126.9 996 0 2 -- Chart
1960 7 18 06 18.8 126.8 996 0 2 -- Chart
1960 7 18 12 19.1 126.7 996 0 9 -- Chart
1960 7 18 18 19.4 126.6 990 0 9 -- Chart
1960 7 19 00 19.7 126.5 990 0 9 -- Chart
1960 7 19 06 20.0 126.5 970 0 9 -- Chart
1960 7 19 12 20.3 126.4 975 0 9 -- Chart
1960 7 19 18 20.6 126.6 980 0 9 -- Chart
1960 7 20 00 20.8 126.8 980 0 9 -- Chart
1960 7 20 06 21.0 127.0 970 0 9 -- Chart
1960 7 20 12 21.3 127.4 955 0 9 -- Chart
1960 7 20 18 21.6 127.6 955 0 9 -- Chart
1960 7 21 00 22.1 127.8 965 0 9 -- Chart
1960 7 21 06 22.6 127.8 950 0 9 -- Chart
1960 7 21 12 22.9 127.7 950 0 9 -- Chart
1960 7 21 18 23.2 127.6 955 0 9 -- Chart
1960 7 22 00 23.4 127.5 950 0 9 -- Chart
1960 7 22 06 23.6 127.4 950 0 9 -- Chart
1960 7 22 12 23.9 127.1 975 0 9 -- Chart
1960 7 22 18 24.1 126.9 965 0 9 -- Chart
1960 7 23 00 23.8 126.8 965 0 9 -- Chart
1960 7 23 06 23.4 126.8 965 0 9 -- Chart
1960 7 23 12 23.2 127.0 970 0 9 -- Chart
1960 7 23 18 23.3 127.3 975 0 9 -- Chart
1960 7 24 00 23.8 127.3 980 0 9 -- Chart
1960 7 24 06 24.1 127.1 980 0 9 -- Chart
1960 7 24 12 24.2 126.9 980 0 9 -- Chart
1960 7 24 18 24.4 126.7 980 0 9 -- Chart
1960 7 25 00 24.8 126.6 980 0 9 -- Chart
1960 7 25 06 25.0 126.3 980 0 9 -- Chart
1960 7 25 12 25.1 125.9 980 0 9 -- Chart
1960 7 25 18 25.6 125.7 980 0 9 -- Chart
1960 7 26 00 26.0 125.5 980 0 9 -- Chart
1960 7 26 06 26.5 125.5 985 0 9 -- Chart
1960 7 26 12 27.2 125.4 985 0 9 -- Chart
1960 7 26 18 27.8 125.2 980 0 9 -- Chart
1960 7 27 00 28.4 124.9 975 0 9 -- Chart
1960 7 27 06 29.2 124.5 975 0 9 -- Chart
1960 7 27 12 30.7 123.9 975 0 9 -- Chart
1960 7 27 18 32.1 123.3 980 0 9 -- Chart
1960 7 28 00 34.1 122.8 985 0 9 -- Chart
1960 7 28 06 35.8 122.1 985 0 9 -- Chart
1960 7 28 12 37.2 121.8 985 0 9 -- Chart
1960 7 28 18 38.8 121.2 986 0 9 -- Chart
1960 7 29 00 40.0 121.0 992 0 6 -- Chart
1960 7 29 06 42.0 121.5 1002 0 6 -- Chart
1960 7 29 12 44.6 123.6 1004 0 6 -- Chart
1960 7 29 18 47.0 126.0 1004 0 6 -- Chart
1960 7 30 00 47.5 129.0 1002 0 6 -- Chart
1960 7 30 06 48.2 133.2 998 0 6 -- Chart
1960 7 30 12 47.5 134.8 998 0 6 -- Chart
1960 7 30 18 46.0 139.0 996 0 6 -- Chart
1960 7 31 00 47.0 140.5 994 0 6 -- Chart
1960 7 31 06 47.0 143.0 996 0 6 -- Chart
1960 7 31 12 47.1 144.1 996 0 6 -- Chart
1960 7 31 18 48.0 147.0 996 0 6 -- Chart
1960 8 1 00 48.5 150.0 998 0 6 -- Chart
1960 8 1 06 48.5 151.0 998 0 6 -- Chart
1960 8 1 12 48.5 152.0 998 0 6 -- Chart
1960 8 1 18 48.5 154.5 998 0 6 -- Chart
1960 8 2 00 48.3 157.3 1000 0 6 -- Chart
1960 8 2 06 49.0 161.0 1004 0 6 -- Chart
1960 8 2 12 49.8 165.0 1004 0 6 -- Chart
Japan Meteorological Agency Best Track Data | Correction Date : 1989-06-01
< Typhoon 196005 1960 Season Typhoon 196007 >

Help